createdAt,value
2022-09-18T00:00:14.469Z,1.53
2022-09-18T00:02:41.641Z,1.77
2022-09-18T00:05:10.437Z,2.13
2022-09-18T00:07:37.528Z,1.57
2022-09-18T00:10:04.823Z,1.60
2022-09-18T00:12:31.914Z,1.87
2022-09-18T00:14:59.084Z,2.20
2022-09-18T00:17:26.232Z,1.57
2022-09-18T00:19:53.839Z,1.67
2022-09-18T00:22:21.016Z,2.03
2022-09-18T00:24:48.204Z,1.70
2022-09-18T00:27:15.323Z,1.80
2022-09-18T00:29:42.497Z,2.00
2022-09-18T00:32:09.832Z,1.80
2022-09-18T00:34:38.874Z,2.00
2022-09-18T00:37:06.063Z,2.27
2022-09-18T00:39:33.175Z,2.27
2022-09-18T00:42:00.249Z,2.00
2022-09-18T00:44:39.264Z,1.97
2022-09-18T00:47:12.478Z,2.30
2022-09-18T00:49:40.939Z,2.20
2022-09-18T00:52:08.091Z,1.70
2022-09-18T00:54:36.997Z,2.40
2022-09-18T00:57:08.493Z,2.30
2022-09-18T00:59:36.659Z,1.90
2022-09-18T01:02:05.105Z,2.27
2022-09-18T01:04:32.743Z,2.43
2022-09-18T01:07:05.769Z,2.67
2022-09-18T01:09:44.980Z,2.57
2022-09-18T01:12:12.114Z,2.53
2022-09-18T01:14:44.991Z,2.20
2022-09-18T01:17:15.518Z,2.53
2022-09-18T01:19:51.711Z,2.40
2022-09-18T01:22:18.827Z,2.30
2022-09-18T01:24:57.794Z,2.30
2022-09-18T01:27:30.943Z,2.60
2022-09-18T01:29:57.981Z,2.40
2022-09-18T01:32:28.201Z,2.40
2022-09-18T01:35:14.174Z,2.00
2022-09-18T01:38:14.624Z,2.30
2022-09-18T01:40:46.836Z,2.30
2022-09-18T01:43:15.861Z,2.27
2022-09-18T01:45:45.711Z,2.17
2022-09-18T01:48:15.198Z,2.23
2022-09-18T01:50:44.810Z,2.40
2022-09-18T01:53:14.702Z,2.07
2022-09-18T01:55:43.322Z,2.50
2022-09-18T01:58:13.152Z,2.33
2022-09-18T02:00:43.506Z,2.50
2022-09-18T02:03:10.752Z,2.53
2022-09-18T02:05:43.019Z,2.53
2022-09-18T02:08:18.887Z,2.50
2022-09-18T02:10:48.595Z,1.90
2022-09-18T02:13:18.658Z,2.17
2022-09-18T02:15:48.093Z,2.57
2022-09-18T02:18:21.458Z,2.10
2022-09-18T02:20:49.254Z,2.17
2022-09-18T02:23:17.172Z,2.30
2022-09-18T02:25:44.225Z,2.30
2022-09-18T02:28:12.444Z,2.20
2022-09-18T02:30:39.918Z,2.40
2022-09-18T02:33:23.415Z,2.33
2022-09-18T02:35:54.159Z,2.17
2022-09-18T02:38:32.967Z,2.23
2022-09-18T02:41:20.347Z,2.00
2022-09-18T02:44:06.197Z,2.10
2022-09-18T02:46:38.353Z,2.10
2022-09-18T02:49:14.902Z,2.30
2022-09-18T02:51:45.053Z,1.77
2022-09-18T02:54:14.403Z,2.20
2022-09-18T02:56:44.375Z,2.10
2022-09-18T02:59:15.519Z,2.00
2022-09-18T03:01:43.819Z,2.27
2022-09-18T03:04:12.885Z,2.20
2022-09-18T03:06:40.170Z,2.07
2022-09-18T03:09:07.635Z,2.00
2022-09-18T03:11:34.720Z,2.30
2022-09-18T03:14:01.859Z,1.87
2022-09-18T03:16:29.001Z,1.93
2022-09-18T03:18:59.660Z,2.00
2022-09-18T03:21:27.394Z,1.80
2022-09-18T03:23:54.590Z,2.10
2022-09-18T03:26:21.775Z,2.00
2022-09-18T03:28:49.106Z,1.77
2022-09-18T03:31:16.295Z,2.30
2022-09-18T03:33:43.437Z,1.70
2022-09-18T03:36:10.551Z,1.60
2022-09-18T03:38:37.819Z,1.83
2022-09-18T03:41:05.550Z,1.70
2022-09-18T03:43:32.674Z,1.93
2022-09-18T03:45:59.815Z,1.83
2022-09-18T03:48:26.911Z,1.63
2022-09-18T03:50:54.011Z,1.73
2022-09-18T03:53:21.086Z,1.70
2022-09-18T03:55:49.887Z,1.80
2022-09-18T03:58:17.072Z,1.90
2022-09-18T04:00:45.062Z,1.60
2022-09-18T04:03:12.378Z,1.70
2022-09-18T04:05:39.534Z,1.80
2022-09-18T04:08:06.691Z,1.90
2022-09-18T04:10:34.494Z,1.50
2022-09-18T04:13:01.648Z,1.47
2022-09-18T04:15:28.767Z,1.63
2022-09-18T04:17:55.907Z,1.40
2022-09-18T04:20:22.998Z,1.60
2022-09-18T04:22:50.208Z,1.70
2022-09-18T04:25:17.776Z,1.60
2022-09-18T04:27:46.081Z,1.50
2022-09-18T04:30:14.230Z,1.60
2022-09-18T04:32:42.694Z,1.60
2022-09-18T04:35:09.901Z,1.40
2022-09-18T04:37:37.026Z,1.57
2022-09-18T04:40:05.118Z,1.53
2022-09-18T04:42:32.474Z,1.40
2022-09-18T04:44:59.565Z,1.77
2022-09-18T04:47:26.706Z,1.70
2022-09-18T04:49:53.963Z,1.83
2022-09-18T04:52:21.113Z,1.40
2022-09-18T04:54:48.213Z,1.83
2022-09-18T04:57:15.311Z,1.47
2022-09-18T04:59:42.431Z,1.47
2022-09-18T05:02:09.650Z,1.40
2022-09-18T05:04:36.881Z,1.90
2022-09-18T05:07:05.193Z,1.70
2022-09-18T05:09:32.331Z,1.50
2022-09-18T05:11:59.617Z,1.77
2022-09-18T05:14:27.609Z,1.90
2022-09-18T05:16:56.365Z,1.87
2022-09-18T05:19:23.838Z,1.87
2022-09-18T05:21:51.351Z,2.10
2022-09-18T05:24:18.624Z,1.90
2022-09-18T05:26:45.896Z,2.07
2022-09-18T05:29:12.985Z,2.17
2022-09-18T05:31:41.884Z,2.00
2022-09-18T05:34:09.100Z,2.17
2022-09-18T05:36:36.244Z,2.50
2022-09-18T05:39:03.470Z,2.00
2022-09-18T05:41:30.661Z,1.87
2022-09-18T05:43:57.772Z,1.80
2022-09-18T05:46:24.900Z,2.20
2022-09-18T05:48:52.493Z,2.10
2022-09-18T05:51:19.895Z,1.90
2022-09-18T05:53:48.561Z,2.10
2022-09-18T05:56:16.621Z,1.90
2022-09-18T05:58:43.942Z,2.17
2022-09-18T06:01:11.203Z,1.80
2022-09-18T06:03:38.304Z,1.70
2022-09-18T06:06:05.498Z,2.07
2022-09-18T06:08:32.592Z,2.10
2022-09-18T06:11:03.171Z,1.80
2022-09-18T06:13:30.364Z,2.00
2022-09-18T06:15:58.363Z,1.90
2022-09-18T06:18:26.165Z,1.73
2022-09-18T06:20:54.776Z,1.83
2022-09-18T06:23:22.987Z,1.80
2022-09-18T06:25:50.131Z,1.70
2022-09-18T06:28:17.244Z,1.90
2022-09-18T06:30:44.319Z,1.70
2022-09-18T06:33:11.503Z,1.60
2022-09-18T06:35:38.640Z,1.73
2022-09-18T06:38:06.722Z,1.70
2022-09-18T06:40:34.337Z,1.60
2022-09-18T06:43:02.018Z,1.83
2022-09-18T06:45:29.572Z,1.70
2022-09-18T06:48:00.942Z,1.83
2022-09-18T06:50:28.028Z,1.90
2022-09-18T06:52:55.132Z,1.57
2022-09-18T06:55:22.270Z,2.10
2022-09-18T06:57:56.214Z,1.50
2022-09-18T07:00:23.825Z,1.63
2022-09-18T07:02:58.173Z,1.47
2022-09-18T07:05:26.643Z,1.50
2022-09-18T07:07:53.801Z,1.40
2022-09-18T07:10:21.111Z,1.60
2022-09-18T07:12:49.050Z,1.70
2022-09-18T07:15:17.429Z,1.50
2022-09-18T07:17:44.572Z,1.50
2022-09-18T07:20:12.477Z,1.40
2022-09-18T07:22:43.680Z,2.03
2022-09-18T07:25:13.625Z,1.33
2022-09-18T07:27:40.715Z,3.23
2022-09-18T07:30:08.038Z,1.60
2022-09-18T07:32:36.152Z,2.10
2022-09-18T07:35:03.417Z,1.27
2022-09-18T07:37:30.538Z,1.60
2022-09-18T07:39:57.928Z,2.50
2022-09-18T07:42:25.075Z,1.23
2022-09-18T07:44:52.175Z,1.40
2022-09-18T07:47:19.294Z,1.40
2022-09-18T07:49:46.368Z,1.50
2022-09-18T07:52:13.543Z,1.10
2022-09-18T07:54:40.641Z,1.10
2022-09-18T07:57:07.788Z,1.40
2022-09-18T07:59:34.873Z,1.00
2022-09-18T08:02:02.076Z,1.27
2022-09-18T08:04:29.295Z,1.40
2022-09-18T08:07:03.330Z,0.97
2022-09-18T08:09:30.617Z,1.53
2022-09-18T08:11:57.894Z,1.10
2022-09-18T08:14:28.716Z,1.00
2022-09-18T08:16:56.886Z,0.90
2022-09-18T08:19:24.103Z,0.90
2022-09-18T08:21:51.212Z,1.43
2022-09-18T08:24:18.354Z,0.80
2022-09-18T08:26:46.035Z,1.00
2022-09-18T08:29:18.914Z,0.70
2022-09-18T08:31:47.112Z,1.10
2022-09-18T08:34:14.684Z,0.90
2022-09-18T08:36:41.867Z,0.90
2022-09-18T08:39:08.981Z,0.93
2022-09-18T08:41:46.705Z,0.90
2022-09-18T08:44:35.926Z,1.20
2022-09-18T08:47:03.600Z,0.90
2022-09-18T08:49:38.738Z,1.50
2022-09-18T08:52:12.005Z,1.20
2022-09-18T08:54:44.907Z,1.40
2022-09-18T08:57:35.726Z,1.20
2022-09-18T09:00:10.026Z,1.30
2022-09-18T09:02:38.745Z,1.10
2022-09-18T09:05:26.184Z,1.10
2022-09-18T09:08:22.407Z,1.30
2022-09-18T09:10:54.418Z,1.53
2022-09-18T09:13:27.695Z,1.30
2022-09-18T09:15:57.962Z,1.63
2022-09-18T09:18:33.501Z,1.40
2022-09-18T09:21:11.732Z,1.20
2022-09-18T09:23:51.213Z,1.20
2022-09-18T09:26:20.086Z,1.47
2022-09-18T09:29:13.432Z,1.23
2022-09-18T09:31:43.821Z,1.43
2022-09-18T09:34:19.234Z,1.40
2022-09-18T09:36:48.716Z,1.10
2022-09-18T09:39:18.832Z,1.67
2022-09-18T09:41:49.933Z,1.00
2022-09-18T09:44:38.360Z,0.87
2022-09-18T09:47:17.504Z,1.00
2022-09-18T09:49:44.608Z,0.90
2022-09-18T09:52:17.510Z,0.87
2022-09-18T09:54:45.499Z,1.03
2022-09-18T09:57:31.254Z,1.10
2022-09-18T10:00:14.149Z,1.10
2022-09-18T10:02:50.441Z,1.10
2022-09-18T10:05:53.887Z,1.33
2022-09-18T10:08:53.332Z,1.60
2022-09-18T10:11:20.520Z,1.70
2022-09-18T10:13:50.533Z,1.20
2022-09-18T10:16:20.810Z,3.20
2022-09-18T10:18:48.451Z,1.00
2022-09-18T10:21:27.158Z,1.10
2022-09-18T10:24:13.213Z,1.13
2022-09-18T10:26:43.549Z,0.80
2022-09-18T10:29:11.126Z,1.10
2022-09-18T10:31:52.814Z,1.00
2022-09-18T10:34:43.423Z,1.00
2022-09-18T10:37:28.922Z,1.00
2022-09-18T10:40:01.239Z,0.97
2022-09-18T10:42:29.873Z,1.00
2022-09-18T10:45:01.641Z,0.87
2022-09-18T10:47:30.609Z,1.30
2022-09-18T10:50:06.180Z,1.00
2022-09-18T10:52:37.087Z,1.00
2022-09-18T10:55:09.942Z,0.93
2022-09-18T10:57:37.030Z,1.00
2022-09-18T11:00:17.768Z,1.10
2022-09-18T11:03:08.172Z,1.33
2022-09-18T11:05:36.889Z,1.20
2022-09-18T11:08:14.047Z,1.00
2022-09-18T11:10:41.246Z,1.47
2022-09-18T11:13:16.048Z,1.00
2022-09-18T11:15:50.814Z,1.10
2022-09-18T11:18:17.879Z,1.07
2022-09-18T11:20:45.873Z,0.90
2022-09-18T11:23:16.062Z,1.17
2022-09-18T11:25:43.214Z,1.20
2022-09-18T11:28:30.036Z,1.10
2022-09-18T11:31:02.689Z,1.10
2022-09-18T11:33:32.007Z,0.90
2022-09-18T11:36:03.874Z,1.03
2022-09-18T11:38:31.569Z,1.20
2022-09-18T11:40:59.996Z,0.83
2022-09-18T11:43:28.773Z,1.10
2022-09-18T11:46:21.321Z,1.00
2022-09-18T11:49:04.645Z,1.40
2022-09-18T11:51:41.660Z,1.43
2022-09-18T11:54:12.633Z,1.00
2022-09-18T11:56:41.964Z,1.10
2022-09-18T11:59:23.527Z,1.20
2022-09-18T12:01:56.027Z,1.10
2022-09-18T12:04:29.270Z,1.17
2022-09-18T12:07:14.992Z,1.33
2022-09-18T12:09:40.732Z,1.43
2022-09-18T12:12:07.875Z,1.27
2022-09-18T12:14:46.909Z,1.17
2022-09-18T12:17:23.343Z,1.13
2022-09-18T12:19:58.977Z,1.10
2022-09-18T12:22:29.378Z,1.20
2022-09-18T12:24:56.497Z,0.90
2022-09-18T12:27:27.524Z,1.00
2022-09-18T12:29:57.662Z,0.80
2022-09-18T12:32:43.490Z,0.90
2022-09-18T12:35:16.623Z,0.90
2022-09-18T12:37:58.447Z,1.10
2022-09-18T12:40:34.045Z,1.00
2022-09-18T12:43:13.046Z,0.90
2022-09-18T12:45:52.236Z,1.03
2022-09-18T12:48:39.416Z,1.10
2022-09-18T12:51:21.540Z,1.10
2022-09-18T12:53:51.898Z,1.00
2022-09-18T12:56:25.153Z,1.07
2022-09-18T12:59:01.967Z,1.10
2022-09-18T13:01:39.568Z,1.17
2022-09-18T13:04:25.411Z,1.03
2022-09-18T13:07:02.533Z,1.00
2022-09-18T13:09:49.871Z,1.00
2022-09-18T13:12:22.774Z,1.00
2022-09-18T13:14:54.509Z,1.00
2022-09-18T13:17:29.045Z,0.90
2022-09-18T13:19:59.044Z,1.10
2022-09-18T13:22:29.174Z,1.33
2022-09-18T13:24:56.382Z,1.10
2022-09-18T13:27:24.983Z,1.00
2022-09-18T13:29:52.051Z,1.33
2022-09-18T13:32:19.314Z,0.97
2022-09-18T13:34:55.312Z,1.00
2022-09-18T13:37:23.906Z,1.30
2022-09-18T13:40:09.282Z,1.23
2022-09-18T13:42:42.009Z,1.30
2022-09-18T13:45:22.333Z,1.27
2022-09-18T13:47:58.502Z,1.20
2022-09-18T13:50:25.723Z,1.37
2022-09-18T13:52:55.576Z,1.40
2022-09-18T13:55:27.186Z,1.43
2022-09-18T13:58:13.054Z,1.27
2022-09-18T14:00:41.736Z,1.30
2022-09-18T14:03:08.874Z,1.23
2022-09-18T14:05:39.746Z,1.47
2022-09-18T14:08:22.489Z,1.37
2022-09-18T14:11:13.709Z,1.33
2022-09-18T14:13:42.676Z,1.50
2022-09-18T14:16:12.288Z,1.47
2022-09-18T14:18:53.555Z,1.73
2022-09-18T14:21:39.892Z,1.33
2022-09-18T14:24:23.165Z,1.50
2022-09-18T14:26:55.279Z,1.40
2022-09-18T14:29:22.545Z,1.60
2022-09-18T14:31:54.169Z,1.50
2022-09-18T14:34:24.091Z,1.50
2022-09-18T14:36:54.734Z,1.63
2022-09-18T14:39:25.680Z,1.60
2022-09-18T14:41:53.829Z,1.90
2022-09-18T14:44:21.871Z,1.60
2022-09-18T14:46:56.383Z,1.50
2022-09-18T14:49:48.297Z,1.90
2022-09-18T14:52:21.748Z,2.00
2022-09-18T14:54:49.885Z,1.60
2022-09-18T14:57:18.912Z,1.80
2022-09-18T14:59:50.464Z,1.80
2022-09-18T15:02:23.723Z,2.03
2022-09-18T15:04:51.144Z,1.90
2022-09-18T15:07:19.415Z,1.83
2022-09-18T15:09:49.062Z,1.70
2022-09-18T15:12:19.282Z,1.90
2022-09-18T15:14:47.799Z,2.00
2022-09-18T15:17:23.620Z,1.70
2022-09-18T15:20:01.136Z,1.77
2022-09-18T15:22:28.926Z,1.87
2022-09-18T15:25:00.725Z,2.00
2022-09-18T15:27:28.430Z,2.10
2022-09-18T15:30:00.211Z,1.93
2022-09-18T15:32:29.342Z,2.13
2022-09-18T15:34:56.846Z,1.70
2022-09-18T15:37:24.910Z,1.90
2022-09-18T15:40:15.045Z,2.10
2022-09-18T15:42:51.598Z,1.97
2022-09-18T15:45:21.526Z,2.40
2022-09-18T15:47:48.858Z,1.97
2022-09-18T15:50:15.906Z,2.03
2022-09-18T15:52:43.017Z,2.30
2022-09-18T15:55:17.405Z,2.40
2022-09-18T15:57:49.021Z,2.33
2022-09-18T16:00:19.851Z,2.70
2022-09-18T16:02:54.177Z,2.40
2022-09-18T16:05:22.081Z,2.53
2022-09-18T16:07:56.082Z,2.70
2022-09-18T16:10:35.301Z,2.80
2022-09-18T16:13:02.426Z,2.70
2022-09-18T16:15:29.680Z,3.03
2022-09-18T16:18:20.182Z,3.10
2022-09-18T16:21:01.623Z,3.00
2022-09-18T16:23:33.406Z,2.70
2022-09-18T16:26:06.695Z,3.03
2022-09-18T16:28:35.558Z,2.77
2022-09-18T16:31:02.666Z,3.10
2022-09-18T16:33:31.242Z,2.60
2022-09-18T16:36:07.796Z,3.00
2022-09-18T16:38:35.756Z,3.23
2022-09-18T16:41:03.144Z,3.03
2022-09-18T16:43:30.205Z,3.20
2022-09-18T16:45:57.445Z,3.40
2022-09-18T16:48:25.252Z,3.53
2022-09-18T16:50:52.349Z,3.60
2022-09-18T16:53:19.625Z,3.43
2022-09-18T16:55:49.041Z,3.63
2022-09-18T16:58:17.825Z,3.80
2022-09-18T17:00:45.061Z,3.83
2022-09-18T17:03:12.524Z,3.70
2022-09-18T17:05:39.676Z,3.70
2022-09-18T17:08:07.432Z,3.50
2022-09-18T17:10:35.288Z,4.00
2022-09-18T17:13:02.767Z,3.80
2022-09-18T17:15:30.114Z,4.43
2022-09-18T17:17:57.308Z,4.87
2022-09-18T17:20:24.435Z,4.40
2022-09-18T17:22:51.554Z,5.10
2022-09-18T17:25:19.459Z,4.93
2022-09-18T17:27:48.393Z,4.97
2022-09-18T17:32:56.856Z,4.67
2022-09-18T17:35:23.971Z,4.83
2022-09-18T17:37:51.831Z,5.13
2022-09-18T17:40:21.876Z,6.03
2022-09-18T17:42:49.058Z,5.43
2022-09-18T17:45:16.150Z,5.00
2022-09-18T17:47:43.259Z,5.20
2022-09-18T17:50:10.462Z,5.23
2022-09-18T17:52:37.631Z,4.90
2022-09-18T17:55:05.041Z,5.47
2022-09-18T17:57:32.866Z,4.80
2022-09-18T17:59:59.958Z,4.70
2022-09-18T18:02:27.203Z,5.70
2022-09-18T18:04:55.320Z,5.70
2022-09-18T18:07:22.388Z,5.90
2022-09-18T18:09:49.490Z,6.40
2022-09-18T18:12:16.599Z,6.83
2022-09-18T18:14:43.799Z,8.03
2022-09-18T18:17:12.104Z,7.20
2022-09-18T18:19:39.194Z,6.40
2022-09-18T18:22:06.241Z,6.90
2022-09-18T18:24:33.312Z,6.47
2022-09-18T18:27:00.382Z,6.47
2022-09-18T18:29:27.510Z,6.50
2022-09-18T18:31:54.719Z,5.80
2022-09-18T18:34:22.197Z,6.20
2022-09-18T18:36:50.343Z,5.33
2022-09-18T18:39:19.891Z,5.17
2022-09-18T18:41:47.291Z,5.30
2022-09-18T18:44:14.468Z,5.17
2022-09-18T18:46:41.736Z,3.33
2022-09-18T18:49:10.333Z,3.50
2022-09-18T18:51:39.157Z,4.60
2022-09-18T18:54:06.664Z,4.70
2022-09-18T18:56:35.590Z,4.90
2022-09-18T18:59:03.721Z,4.73
2022-09-18T19:01:31.452Z,4.10
2022-09-18T19:04:00.121Z,9.60
2022-09-18T19:06:27.280Z,4.87
2022-09-18T19:08:58.542Z,3.60
2022-09-18T19:11:26.614Z,3.23
2022-09-18T19:13:56.568Z,2.30
2022-09-18T19:16:28.470Z,2.30
2022-09-18T19:18:58.606Z,2.33
2022-09-18T19:21:26.082Z,1.90
2022-09-18T19:23:55.814Z,2.00
2022-09-18T19:26:23.809Z,1.90
2022-09-18T19:28:52.031Z,2.00
2022-09-18T19:31:19.852Z,1.90
2022-09-18T19:33:48.859Z,1.73
2022-09-18T19:36:16.022Z,1.93
2022-09-18T19:38:43.390Z,2.10
2022-09-18T19:41:20.427Z,2.50
2022-09-18T19:43:48.081Z,1.50
2022-09-18T19:46:19.927Z,0.80
2022-09-18T19:48:47.029Z,1.37
2022-09-18T19:51:14.103Z,1.07
2022-09-18T19:53:41.434Z,1.00
2022-09-18T19:56:22.633Z,0.83
2022-09-18T19:58:56.581Z,0.90
2022-09-18T20:01:23.656Z,1.00
2022-09-18T20:03:53.202Z,1.30
2022-09-18T20:06:21.272Z,1.10
2022-09-18T20:08:48.357Z,1.10
2022-09-18T20:11:15.525Z,1.63
2022-09-18T20:13:42.659Z,1.10
2022-09-18T20:16:10.856Z,1.20
2022-09-18T20:18:38.327Z,1.20
2022-09-18T20:21:09.706Z,0.80
2022-09-18T20:23:37.222Z,0.70
2022-09-18T20:26:08.124Z,0.80
2022-09-18T20:28:36.304Z,0.80
2022-09-18T20:31:07.228Z,0.80
2022-09-18T20:33:34.758Z,0.90
2022-09-18T20:36:02.497Z,1.00
2022-09-18T20:38:33.621Z,1.10
2022-09-18T20:41:06.905Z,1.10
2022-09-18T20:43:35.767Z,0.90
2022-09-18T20:46:04.481Z,1.03
2022-09-18T20:48:35.725Z,0.90
2022-09-18T20:51:09.592Z,0.83
2022-09-18T20:53:39.190Z,0.67
2022-09-18T20:56:06.776Z,0.77
2022-09-18T20:58:34.201Z,0.93
2022-09-18T21:01:11.841Z,0.83
2022-09-18T21:03:39.893Z,0.90
2022-09-18T21:06:21.908Z,0.77
2022-09-18T21:08:49.853Z,0.60
2022-09-18T21:11:18.042Z,0.70
2022-09-18T21:13:49.087Z,0.90
2022-09-18T21:16:18.213Z,0.73
2022-09-18T21:18:47.245Z,0.70
2022-09-18T21:21:15.231Z,0.90
2022-09-18T21:23:56.333Z,1.10
2022-09-18T21:26:24.904Z,1.07
2022-09-18T21:28:55.741Z,0.90
2022-09-18T21:31:23.350Z,0.77
2022-09-18T21:33:53.491Z,1.10
2022-09-18T21:36:21.719Z,0.80
2022-09-18T21:38:50.246Z,0.77
2022-09-18T21:41:18.050Z,0.80
2022-09-18T21:43:47.152Z,0.80
2022-09-18T21:46:15.471Z,0.60
2022-09-18T21:48:43.056Z,1.00
2022-09-18T21:51:12.231Z,0.80
2022-09-18T21:53:40.289Z,0.80
2022-09-18T21:56:09.318Z,0.80
2022-09-18T21:58:40.495Z,1.10
2022-09-18T22:01:15.680Z,0.90
2022-09-18T22:03:50.649Z,0.70
2022-09-18T22:06:18.643Z,1.10
2022-09-18T22:08:50.337Z,0.90
2022-09-18T22:11:18.872Z,0.83
2022-09-18T22:13:46.829Z,0.70
2022-09-18T22:16:14.249Z,0.80
2022-09-18T22:18:41.585Z,0.70
2022-09-18T22:21:34.745Z,0.90
2022-09-18T22:24:08.768Z,0.87
2022-09-18T22:26:37.546Z,1.00
2022-09-18T22:29:07.968Z,0.90
2022-09-18T22:31:36.295Z,0.80
2022-09-18T22:34:03.452Z,1.00
2022-09-18T22:36:30.684Z,0.90
2022-09-18T22:38:57.922Z,1.00
2022-09-18T22:41:25.239Z,1.10
2022-09-18T22:43:56.190Z,0.97
2022-09-18T22:46:24.320Z,1.20
2022-09-18T22:48:51.848Z,1.10
2022-09-18T22:51:26.873Z,0.90
2022-09-18T22:53:58.944Z,1.07
2022-09-18T22:56:27.054Z,1.10
2022-09-18T22:58:54.892Z,1.00
2022-09-18T23:01:46.004Z,1.37
2022-09-18T23:04:13.436Z,1.40
2022-09-18T23:06:40.537Z,1.57
2022-09-18T23:09:07.707Z,1.50
2022-09-18T23:11:35.702Z,1.50
2022-09-18T23:14:06.906Z,1.70
2022-09-18T23:16:34.739Z,1.30
2022-09-18T23:19:06.369Z,1.47
2022-09-18T23:21:34.224Z,1.60
2022-09-18T23:24:04.885Z,1.50
2022-09-18T23:26:35.446Z,1.63
2022-09-18T23:29:04.727Z,1.70
2022-09-18T23:31:33.142Z,1.60
2022-09-18T23:34:01.486Z,1.50
2022-09-18T23:36:32.792Z,1.57
2022-09-18T23:39:01.670Z,1.50
2022-09-18T23:41:37.888Z,1.60
2022-09-18T23:44:06.477Z,1.60
2022-09-18T23:46:33.983Z,1.70
2022-09-18T23:49:01.230Z,1.70
2022-09-18T23:51:29.626Z,1.77
2022-09-18T23:53:57.333Z,1.63
2022-09-18T23:56:24.928Z,1.47
2022-09-18T23:58:55.987Z,1.70
